createdAt,value
2022-07-29T00:01:43.893Z,24.10
2022-07-29T00:04:10.520Z,24.10
2022-07-29T00:06:37.101Z,24.10
2022-07-29T00:09:08.055Z,24.10
2022-07-29T00:11:34.599Z,24.10
2022-07-29T00:14:01.813Z,24.10
2022-07-29T00:16:28.410Z,24.10
2022-07-29T00:18:54.956Z,24.10
2022-07-29T00:21:21.506Z,24.10
2022-07-29T00:23:48.029Z,24.10
2022-07-29T00:26:14.563Z,24.10
2022-07-29T00:28:41.086Z,24.10
2022-07-29T00:31:07.619Z,24.10
2022-07-29T00:33:34.160Z,24.10
2022-07-29T00:36:00.688Z,24.10
2022-07-29T00:38:27.217Z,24.10
2022-07-29T00:40:55.828Z,24.10
2022-07-29T00:43:22.389Z,24.10
2022-07-29T00:45:49.847Z,24.00
2022-07-29T00:48:16.374Z,24.00
2022-07-29T00:50:42.904Z,24.00
2022-07-29T00:53:09.449Z,24.00
2022-07-29T00:55:35.988Z,24.00
2022-07-29T00:58:02.507Z,24.10
2022-07-29T01:00:31.933Z,24.10
2022-07-29T01:02:58.592Z,24.10
2022-07-29T01:05:25.129Z,24.10
2022-07-29T01:08:11.652Z,24.10
2022-07-29T01:10:38.167Z,24.10
2022-07-29T01:13:08.554Z,24.10
2022-07-29T01:15:35.144Z,24.10
2022-07-29T01:18:03.288Z,24.10
2022-07-29T01:20:31.913Z,24.00
2022-07-29T01:22:58.634Z,24.00
2022-07-29T01:25:25.865Z,24.00
2022-07-29T01:27:52.401Z,24.00
2022-07-29T01:30:18.915Z,24.00
2022-07-29T01:32:45.465Z,24.00
2022-07-29T01:35:11.978Z,24.00
2022-07-29T01:37:38.620Z,24.00
2022-07-29T01:40:05.168Z,24.00
2022-07-29T01:42:31.700Z,24.10
2022-07-29T01:45:01.937Z,24.00
2022-07-29T01:47:28.492Z,24.10
2022-07-29T01:49:55.033Z,24.10
2022-07-29T01:52:26.057Z,24.10
2022-07-29T01:54:52.576Z,24.10
2022-07-29T01:57:19.115Z,24.10
2022-07-29T01:59:45.633Z,24.00
2022-07-29T02:02:12.166Z,24.10
2022-07-29T02:04:38.758Z,24.10
2022-07-29T02:07:05.348Z,24.10
2022-07-29T02:09:31.943Z,24.10
2022-07-29T02:12:02.123Z,24.10
2022-07-29T02:14:28.687Z,24.10
2022-07-29T02:16:55.919Z,24.00
2022-07-29T02:19:22.453Z,24.10
2022-07-29T02:21:48.962Z,24.10
2022-07-29T02:24:15.760Z,24.10
2022-07-29T02:26:42.634Z,24.10
2022-07-29T02:29:09.148Z,24.10
2022-07-29T02:31:35.810Z,24.10
2022-07-29T02:34:03.524Z,24.10
2022-07-29T02:36:30.046Z,24.00
2022-07-29T02:38:56.601Z,24.00
2022-07-29T02:41:23.122Z,24.00
2022-07-29T02:43:49.847Z,23.90
2022-07-29T02:46:28.796Z,23.90
2022-07-29T02:48:56.134Z,23.90
2022-07-29T02:51:43.468Z,23.90
2022-07-29T02:54:09.221Z,23.90
2022-07-29T02:56:35.744Z,23.90
2022-07-29T02:59:02.285Z,23.90
2022-07-29T03:01:28.890Z,23.90
2022-07-29T03:03:55.494Z,23.90
2022-07-29T03:06:31.142Z,23.90
2022-07-29T03:09:10.484Z,24.00
2022-07-29T03:11:41.414Z,23.90
2022-07-29T03:14:20.515Z,23.90
2022-07-29T03:16:49.969Z,23.90
2022-07-29T03:19:16.500Z,23.90
2022-07-29T03:21:43.020Z,23.90
2022-07-29T03:24:10.739Z,23.90
2022-07-29T03:26:39.048Z,23.90
2022-07-29T03:29:14.211Z,23.90
2022-07-29T03:31:41.476Z,23.90
2022-07-29T03:34:14.346Z,23.90
2022-07-29T03:36:41.014Z,23.90
2022-07-29T03:39:09.017Z,23.90
2022-07-29T03:41:38.033Z,23.90
2022-07-29T03:44:08.078Z,23.90
2022-07-29T03:46:34.648Z,23.90
2022-07-29T03:49:01.405Z,23.90
2022-07-29T03:51:34.091Z,23.90
2022-07-29T03:54:05.014Z,24.00
2022-07-29T03:56:35.977Z,24.00
2022-07-29T03:59:02.487Z,24.00
2022-07-29T04:01:29.034Z,24.10
2022-07-29T04:03:55.659Z,23.90
2022-07-29T04:06:22.233Z,23.80
2022-07-29T04:08:49.987Z,23.90
2022-07-29T04:11:16.513Z,23.90
2022-07-29T04:13:43.018Z,23.80
2022-07-29T04:16:09.999Z,23.80
2022-07-29T04:18:36.586Z,23.90
2022-07-29T04:21:03.459Z,23.90
2022-07-29T04:23:29.975Z,24.00
2022-07-29T04:25:56.515Z,24.10
2022-07-29T04:28:23.038Z,23.90
2022-07-29T04:30:49.646Z,23.90
2022-07-29T04:33:16.194Z,24.00
2022-07-29T04:35:49.849Z,24.10
2022-07-29T04:38:17.362Z,24.00
2022-07-29T04:40:43.980Z,24.00
2022-07-29T04:43:14.372Z,24.00
2022-07-29T04:45:42.132Z,23.90
2022-07-29T04:48:14.144Z,24.00
2022-07-29T04:50:40.685Z,24.00
2022-07-29T04:53:07.203Z,24.00
2022-07-29T04:55:33.744Z,23.90
2022-07-29T04:58:02.026Z,23.90
2022-07-29T05:00:33.137Z,24.00
2022-07-29T05:03:02.126Z,23.90
2022-07-29T05:05:32.083Z,24.00
2022-07-29T05:08:02.273Z,24.00
2022-07-29T05:10:28.821Z,24.00
2022-07-29T05:12:55.342Z,24.00
2022-07-29T05:15:21.900Z,24.00
2022-07-29T05:17:50.053Z,23.90
2022-07-29T05:20:16.610Z,23.90
2022-07-29T05:22:43.128Z,23.80
2022-07-29T05:25:09.688Z,23.70
2022-07-29T05:27:36.212Z,23.80
2022-07-29T05:30:02.736Z,23.70
2022-07-29T05:32:29.275Z,23.80
2022-07-29T05:34:55.812Z,23.80
2022-07-29T05:37:26.134Z,23.70
2022-07-29T05:39:57.272Z,23.80
2022-07-29T05:42:25.606Z,23.70
2022-07-29T05:44:52.138Z,23.70
2022-07-29T05:47:18.690Z,23.70
2022-07-29T05:49:45.235Z,23.80
2022-07-29T05:52:11.745Z,23.80
2022-07-29T05:54:38.277Z,23.70
2022-07-29T05:57:08.138Z,23.80
2022-07-29T05:59:34.670Z,23.80
2022-07-29T06:02:02.210Z,23.70
2022-07-29T06:04:28.771Z,23.60
2022-07-29T06:06:55.377Z,23.70
2022-07-29T06:09:21.911Z,23.70
2022-07-29T06:11:48.432Z,23.70
2022-07-29T06:14:15.156Z,23.70
2022-07-29T06:16:41.961Z,23.70
2022-07-29T06:19:08.519Z,23.80
2022-07-29T06:21:36.137Z,23.70
2022-07-29T06:24:08.627Z,23.80
2022-07-29T06:26:39.239Z,23.70
2022-07-29T06:29:06.355Z,23.70
2022-07-29T06:31:32.897Z,23.60
2022-07-29T06:33:59.419Z,23.70
2022-07-29T06:36:25.967Z,23.70
2022-07-29T06:38:52.513Z,23.80
2022-07-29T06:41:26.168Z,23.80
2022-07-29T06:43:54.638Z,23.70
2022-07-29T06:46:23.671Z,23.80
2022-07-29T06:48:50.494Z,23.80
2022-07-29T06:51:17.105Z,23.80
2022-07-29T06:54:00.607Z,23.80
2022-07-29T06:56:29.618Z,23.80
2022-07-29T06:58:56.124Z,23.80
2022-07-29T07:01:22.710Z,23.80
2022-07-29T07:03:49.338Z,23.80
2022-07-29T07:06:15.871Z,23.80
2022-07-29T07:08:42.397Z,23.80
2022-07-29T07:11:08.932Z,23.90
2022-07-29T07:13:36.598Z,23.80
2022-07-29T07:16:03.475Z,23.80
2022-07-29T07:18:30.015Z,23.90
2022-07-29T07:20:56.549Z,23.80
2022-07-29T07:23:23.080Z,23.80
2022-07-29T07:25:49.592Z,23.80
2022-07-29T07:28:16.115Z,23.80
2022-07-29T07:30:42.657Z,23.80
2022-07-29T07:33:09.191Z,23.80
2022-07-29T07:35:35.720Z,23.80
2022-07-29T07:38:08.205Z,23.80
2022-07-29T07:40:34.733Z,23.80
2022-07-29T07:43:01.270Z,23.80
2022-07-29T07:45:27.854Z,23.90
2022-07-29T07:47:54.431Z,23.90
2022-07-29T07:50:20.940Z,23.90
2022-07-29T07:52:47.622Z,23.80
2022-07-29T07:55:14.151Z,23.80
2022-07-29T07:57:40.685Z,23.80
2022-07-29T08:00:07.223Z,23.90
2022-07-29T08:02:33.784Z,23.80
2022-07-29T08:05:00.308Z,23.80
2022-07-29T08:07:26.834Z,23.80
2022-07-29T08:09:53.360Z,23.80
2022-07-29T08:12:19.863Z,23.80
2022-07-29T08:14:46.371Z,23.80
2022-07-29T08:17:12.885Z,23.80
2022-07-29T08:19:39.409Z,23.80
2022-07-29T08:22:05.930Z,23.80
2022-07-29T08:24:32.444Z,23.80
2022-07-29T08:26:58.960Z,23.90
2022-07-29T08:29:25.496Z,23.90
2022-07-29T08:31:52.299Z,23.90
2022-07-29T08:34:21.559Z,23.90
2022-07-29T08:36:54.255Z,23.90
2022-07-29T08:39:20.787Z,23.90
2022-07-29T08:41:57.044Z,23.90
2022-07-29T08:44:30.362Z,23.90
2022-07-29T08:46:57.828Z,24.00
2022-07-29T08:52:14.442Z,23.90
2022-07-29T08:54:40.985Z,23.90
2022-07-29T08:57:07.501Z,23.90
2022-07-29T08:59:35.765Z,23.90
2022-07-29T09:02:08.503Z,24.00
2022-07-29T09:04:35.799Z,24.00
2022-07-29T09:07:02.313Z,23.90
2022-07-29T09:09:28.850Z,23.90
2022-07-29T09:11:55.483Z,24.00
2022-07-29T09:14:22.246Z,24.00
2022-07-29T09:16:53.454Z,24.00
2022-07-29T09:19:20.489Z,23.90
2022-07-29T09:21:50.504Z,24.00
2022-07-29T09:24:17.027Z,23.90
2022-07-29T09:26:43.558Z,23.90
2022-07-29T09:29:10.064Z,24.00
2022-07-29T09:31:36.658Z,24.00
2022-07-29T09:34:03.240Z,24.00
2022-07-29T09:36:29.773Z,24.00
2022-07-29T09:38:56.286Z,24.00
2022-07-29T09:41:26.316Z,24.00
2022-07-29T09:43:52.839Z,24.00
2022-07-29T09:46:20.369Z,24.00
2022-07-29T09:48:46.966Z,24.00
2022-07-29T09:51:17.030Z,24.00
2022-07-29T09:53:46.093Z,23.90
2022-07-29T09:56:12.599Z,23.90
2022-07-29T09:58:44.471Z,23.90
2022-07-29T10:01:11.061Z,23.90
2022-07-29T10:03:37.725Z,23.90
2022-07-29T10:08:54.308Z,23.90
2022-07-29T10:11:20.847Z,23.90
2022-07-29T10:13:47.369Z,23.90
2022-07-29T10:16:14.220Z,23.90
2022-07-29T10:18:40.856Z,23.90
2022-07-29T10:21:08.352Z,23.90
2022-07-29T10:23:46.154Z,23.90
2022-07-29T10:26:14.340Z,23.90
2022-07-29T10:28:40.874Z,23.90
2022-07-29T10:31:08.209Z,23.90
2022-07-29T10:33:34.808Z,23.90
2022-07-29T10:36:02.345Z,23.90
2022-07-29T10:38:28.880Z,23.90
2022-07-29T10:40:57.363Z,23.90
2022-07-29T10:43:24.444Z,23.90
2022-07-29T10:45:51.634Z,23.90
2022-07-29T10:48:19.242Z,23.90
2022-07-29T10:50:45.809Z,23.90
2022-07-29T10:53:14.309Z,23.90
2022-07-29T10:55:43.028Z,23.90
2022-07-29T10:58:09.998Z,23.90
2022-07-29T11:00:37.450Z,23.90
2022-07-29T11:03:10.564Z,23.90
2022-07-29T11:05:40.690Z,23.90
2022-07-29T11:08:07.537Z,23.90
2022-07-29T11:10:34.073Z,23.90
2022-07-29T11:13:00.594Z,24.00
2022-07-29T11:15:28.756Z,23.90
2022-07-29T11:18:02.513Z,23.90
2022-07-29T11:20:29.048Z,23.90
2022-07-29T11:22:55.576Z,23.90
2022-07-29T11:25:50.123Z,23.90
2022-07-29T11:28:08.633Z,23.90
2022-07-29T11:30:35.175Z,23.90
2022-07-29T11:33:01.680Z,23.90
2022-07-29T11:38:16.157Z,23.90
2022-07-29T11:40:44.664Z,23.90
2022-07-29T11:43:14.729Z,23.90
2022-07-29T11:45:44.727Z,23.90
2022-07-29T11:48:29.541Z,23.90
2022-07-29T11:50:58.619Z,23.90
2022-07-29T11:53:25.217Z,23.90
2022-07-29T11:58:42.338Z,23.90
2022-07-29T12:01:14.439Z,23.90
2022-07-29T12:03:41.024Z,23.90
2022-07-29T12:06:07.955Z,23.90
2022-07-29T12:07:01.567Z,23.90
2022-07-29T12:08:34.587Z,23.90
2022-07-29T12:11:02.188Z,24.00
2022-07-29T12:13:37.119Z,23.90
2022-07-29T12:16:04.476Z,24.00
2022-07-29T12:18:31.050Z,23.90
2022-07-29T12:20:57.574Z,24.00
2022-07-29T12:23:24.109Z,24.00
2022-07-29T12:25:55.911Z,23.90
2022-07-29T12:28:27.753Z,23.90
2022-07-29T12:30:54.691Z,23.90
2022-07-29T12:33:26.598Z,23.90
2022-07-29T12:36:06.105Z,23.90
2022-07-29T12:38:38.636Z,23.90
2022-07-29T12:41:05.260Z,23.90
2022-07-29T12:43:31.825Z,23.90
2022-07-29T12:45:58.351Z,23.90
2022-07-29T12:48:26.460Z,23.90
2022-07-29T12:50:56.539Z,24.00
2022-07-29T12:53:26.463Z,24.00
2022-07-29T12:55:56.656Z,24.00
2022-07-29T12:58:23.194Z,24.00
2022-07-29T13:00:49.777Z,24.00
2022-07-29T13:03:16.296Z,24.10
2022-07-29T13:05:50.607Z,24.10
2022-07-29T13:08:21.942Z,24.10
2022-07-29T13:10:48.693Z,24.00
2022-07-29T13:13:15.228Z,24.10
2022-07-29T13:15:41.762Z,24.10
2022-07-29T13:18:08.488Z,24.10
2022-07-29T13:20:34.993Z,24.10
2022-07-29T13:23:01.526Z,24.10
2022-07-29T13:25:32.606Z,24.10
2022-07-29T13:27:59.157Z,24.10
2022-07-29T13:30:26.486Z,24.10
2022-07-29T13:32:53.058Z,24.10
2022-07-29T13:35:20.445Z,24.10
2022-07-29T13:37:51.959Z,24.10
2022-07-29T13:40:18.553Z,24.10
2022-07-29T13:42:45.084Z,24.20
2022-07-29T13:45:11.617Z,24.10
2022-07-29T13:47:38.152Z,24.20
2022-07-29T13:50:06.117Z,24.20
2022-07-29T13:52:38.512Z,24.20
2022-07-29T13:55:05.038Z,24.20
2022-07-29T13:57:32.506Z,24.20
2022-07-29T13:59:59.025Z,24.10
2022-07-29T14:02:26.285Z,24.20
2022-07-29T14:04:53.038Z,24.20
2022-07-29T14:07:20.477Z,24.20
2022-07-29T14:09:47.019Z,24.20
2022-07-29T14:12:14.503Z,24.20
2022-07-29T14:14:41.029Z,24.20
2022-07-29T14:17:07.912Z,24.30
2022-07-29T14:19:38.535Z,24.20
2022-07-29T14:22:05.073Z,24.20
2022-07-29T14:24:31.606Z,24.20
2022-07-29T14:26:58.862Z,24.20
2022-07-29T14:29:25.461Z,24.30
2022-07-29T14:32:04.518Z,24.30
2022-07-29T14:34:31.112Z,24.30
2022-07-29T14:36:57.623Z,24.30
2022-07-29T14:39:24.170Z,24.40
2022-07-29T14:41:50.701Z,24.40
2022-07-29T14:44:17.256Z,24.40
2022-07-29T14:46:43.774Z,24.40
2022-07-29T14:49:15.155Z,24.40
2022-07-29T14:51:41.718Z,24.40
2022-07-29T14:54:08.582Z,24.50
2022-07-29T14:56:37.129Z,24.50
2022-07-29T14:59:04.150Z,24.50
2022-07-29T15:01:32.604Z,24.50
2022-07-29T15:03:59.903Z,24.50
2022-07-29T15:06:26.566Z,24.60
2022-07-29T15:08:53.105Z,24.50
2022-07-29T15:11:20.578Z,24.60
2022-07-29T15:13:50.732Z,24.60
2022-07-29T15:16:17.304Z,24.60
2022-07-29T15:18:44.560Z,24.60
2022-07-29T15:21:11.109Z,24.70
2022-07-29T15:23:37.612Z,24.60
2022-07-29T15:26:04.147Z,24.70
2022-07-29T15:28:32.550Z,24.70
2022-07-29T15:30:59.073Z,24.70
2022-07-29T15:33:25.593Z,24.70
2022-07-29T15:35:56.605Z,24.60
2022-07-29T15:38:28.690Z,24.70
2022-07-29T15:40:55.560Z,24.70
2022-07-29T15:43:22.098Z,24.70
2022-07-29T15:45:50.648Z,24.70
2022-07-29T15:48:17.197Z,24.70
2022-07-29T15:50:47.045Z,24.70
2022-07-29T15:53:13.799Z,24.70
2022-07-29T15:55:44.684Z,24.70
2022-07-29T15:58:13.982Z,24.70
2022-07-29T16:00:40.582Z,24.70
2022-07-29T16:03:07.140Z,24.70
2022-07-29T16:05:33.699Z,24.70
2022-07-29T16:08:00.215Z,24.70
2022-07-29T16:10:26.727Z,24.60
2022-07-29T16:12:53.231Z,24.70
2022-07-29T16:15:19.809Z,24.70
2022-07-29T16:17:50.808Z,24.70
2022-07-29T16:20:17.332Z,24.70
2022-07-29T16:22:43.858Z,24.70
2022-07-29T16:25:14.634Z,24.60
2022-07-29T16:27:41.152Z,24.70
2022-07-29T16:30:07.712Z,24.70
2022-07-29T16:32:34.231Z,24.60
2022-07-29T16:35:02.661Z,24.70
2022-07-29T16:37:29.189Z,24.70
2022-07-29T16:39:55.725Z,24.70
2022-07-29T16:42:44.281Z,24.70
2022-07-29T16:45:08.747Z,24.70
2022-07-29T16:47:36.045Z,24.70
2022-07-29T16:50:02.556Z,24.70
2022-07-29T16:52:29.075Z,24.60
2022-07-29T16:54:56.629Z,24.60
2022-07-29T16:57:26.661Z,24.60
2022-07-29T16:59:53.179Z,24.70
2022-07-29T17:02:20.707Z,24.70
2022-07-29T17:04:50.658Z,24.70
2022-07-29T17:07:17.199Z,24.70
2022-07-29T17:09:43.729Z,24.70
2022-07-29T17:12:14.681Z,24.70
2022-07-29T17:14:41.212Z,24.70
2022-07-29T17:17:13.888Z,24.70
2022-07-29T17:19:43.151Z,24.70
2022-07-29T17:22:15.585Z,24.70
2022-07-29T17:24:45.520Z,24.70
2022-07-29T17:27:12.260Z,24.70
2022-07-29T17:29:38.973Z,24.70
2022-07-29T17:32:07.591Z,24.60
2022-07-29T17:34:38.716Z,24.70
2022-07-29T17:37:05.266Z,24.70
2022-07-29T17:39:32.684Z,24.70
2022-07-29T17:41:59.264Z,24.60
2022-07-29T17:44:25.837Z,24.60
2022-07-29T17:46:52.524Z,24.60
2022-07-29T17:49:19.230Z,24.60
2022-07-29T17:51:45.825Z,24.60
2022-07-29T17:54:12.395Z,24.60
2022-07-29T17:56:38.982Z,24.70
2022-07-29T17:59:09.021Z,24.70
2022-07-29T18:01:35.615Z,24.70
2022-07-29T18:04:02.184Z,24.70
2022-07-29T18:06:28.734Z,24.70
2022-07-29T18:08:56.683Z,24.60
2022-07-29T18:11:23.237Z,24.60
2022-07-29T18:13:49.764Z,24.60
2022-07-29T18:16:20.802Z,24.70
2022-07-29T18:18:47.355Z,24.60
2022-07-29T18:21:13.926Z,24.60
2022-07-29T18:23:40.453Z,24.60
2022-07-29T18:26:06.998Z,24.60
2022-07-29T18:28:33.516Z,24.50
2022-07-29T18:31:00.141Z,24.50
2022-07-29T18:33:26.739Z,24.50
2022-07-29T18:36:10.523Z,24.50
2022-07-29T18:38:44.781Z,24.50
2022-07-29T18:41:14.763Z,24.50
2022-07-29T18:43:41.283Z,24.50
2022-07-29T18:48:57.879Z,24.50
2022-07-29T18:51:24.410Z,24.50
2022-07-29T18:53:50.912Z,24.50
2022-07-29T18:56:17.461Z,24.40
2022-07-29T18:58:44.719Z,24.40
2022-07-29T19:01:16.408Z,24.40
2022-07-29T19:03:43.387Z,24.40
2022-07-29T19:06:09.935Z,24.40
2022-07-29T19:08:36.441Z,24.40
2022-07-29T19:11:08.778Z,24.40
2022-07-29T19:13:35.301Z,24.40
2022-07-29T19:16:01.879Z,24.50
2022-07-29T19:18:28.430Z,24.50
2022-07-29T19:20:56.792Z,24.50
2022-07-29T19:23:23.320Z,24.50
2022-07-29T19:25:53.997Z,24.50
2022-07-29T19:28:20.745Z,24.50
2022-07-29T19:30:47.326Z,24.40
2022-07-29T19:33:13.913Z,24.40
2022-07-29T19:35:40.434Z,24.40
2022-07-29T19:38:06.939Z,24.40
2022-07-29T19:40:38.792Z,24.40
2022-07-29T19:43:51.238Z,24.40
2022-07-29T19:45:51.840Z,24.40
2022-07-29T19:48:18.363Z,24.40
2022-07-29T19:50:44.932Z,24.40
2022-07-29T19:53:11.475Z,24.40
2022-07-29T19:55:38.028Z,24.50
2022-07-29T19:58:04.572Z,24.50
2022-07-29T20:00:34.948Z,24.50
2022-07-29T20:03:01.560Z,24.50
2022-07-29T20:05:28.410Z,24.40
2022-07-29T20:07:55.057Z,24.50
2022-07-29T20:10:21.622Z,24.50
2022-07-29T20:12:48.142Z,24.50
2022-07-29T20:15:18.929Z,24.50
2022-07-29T20:17:45.461Z,24.50
2022-07-29T20:20:12.003Z,24.40
2022-07-29T20:22:38.532Z,24.40
2022-07-29T20:25:05.036Z,24.40
2022-07-29T20:27:31.563Z,24.40
2022-07-29T20:29:58.098Z,24.40
2022-07-29T20:32:26.823Z,24.40
2022-07-29T20:34:53.362Z,24.40
2022-07-29T20:37:19.905Z,24.40
2022-07-29T20:39:46.413Z,24.40
2022-07-29T20:42:14.851Z,24.40
2022-07-29T20:44:41.364Z,24.40
2022-07-29T20:47:07.885Z,24.40
2022-07-29T20:49:34.416Z,24.40
2022-07-29T20:52:00.948Z,24.40
2022-07-29T20:54:27.477Z,24.40
2022-07-29T20:59:45.911Z,24.40
2022-07-29T21:02:12.541Z,24.30
2022-07-29T21:04:39.097Z,24.30
2022-07-29T21:07:05.637Z,24.30
2022-07-29T21:09:32.164Z,24.30
2022-07-29T21:11:58.750Z,24.30
2022-07-29T21:14:25.284Z,24.30
2022-07-29T21:16:51.824Z,24.30
2022-07-29T21:19:18.351Z,24.20
2022-07-29T21:21:44.864Z,24.20
2022-07-29T21:24:12.195Z,24.20
2022-07-29T21:26:54.436Z,24.20
2022-07-29T21:29:32.857Z,24.20
2022-07-29T21:31:59.401Z,24.20
2022-07-29T21:34:26.860Z,24.10
2022-07-29T21:36:53.402Z,24.10
2022-07-29T21:39:19.937Z,24.10
2022-07-29T21:41:50.912Z,24.10
2022-07-29T21:44:17.464Z,24.10
2022-07-29T21:46:44.002Z,24.10
2022-07-29T21:49:10.667Z,24.10
2022-07-29T21:51:37.297Z,24.10
2022-07-29T21:54:03.808Z,24.10
2022-07-29T21:56:30.338Z,24.10
2022-07-29T21:58:58.085Z,24.10
2022-07-29T22:01:24.742Z,24.10
2022-07-29T22:03:51.431Z,24.10
2022-07-29T22:06:18.559Z,24.10
2022-07-29T22:08:45.186Z,24.10
2022-07-29T22:11:11.731Z,24.10
2022-07-29T22:13:38.260Z,24.00
2022-07-29T22:16:04.809Z,24.10
2022-07-29T22:18:31.322Z,24.10
2022-07-29T22:20:57.878Z,24.10
2022-07-29T22:23:24.411Z,24.10
2022-07-29T22:25:56.949Z,24.00
2022-07-29T22:28:23.477Z,24.10
2022-07-29T22:30:50.974Z,24.10
2022-07-29T22:33:21.035Z,24.00
2022-07-29T22:35:48.863Z,24.00
2022-07-29T22:38:15.707Z,24.00
2022-07-29T22:40:42.232Z,24.00
2022-07-29T22:43:15.144Z,24.00
2022-07-29T22:45:45.028Z,24.10
2022-07-29T22:48:11.594Z,24.00
2022-07-29T22:50:38.739Z,24.00
2022-07-29T22:53:05.273Z,24.10
2022-07-29T22:55:31.792Z,24.00
2022-07-29T22:57:58.333Z,24.00
2022-07-29T23:00:24.864Z,24.00
2022-07-29T23:02:51.409Z,24.00
2022-07-29T23:05:21.116Z,24.00
2022-07-29T23:07:47.650Z,24.00
2022-07-29T23:10:14.176Z,24.00
2022-07-29T23:12:40.695Z,24.00
2022-07-29T23:15:07.213Z,24.00
2022-07-29T23:17:36.252Z,24.00
2022-07-29T23:20:03.263Z,24.00
2022-07-29T23:22:29.789Z,24.00
2022-07-29T23:24:56.328Z,24.00
2022-07-29T23:27:22.865Z,24.00
2022-07-29T23:29:49.393Z,24.00
2022-07-29T23:32:16.259Z,24.00
2022-07-29T23:34:42.827Z,24.00
2022-07-29T23:37:09.361Z,24.00
2022-07-29T23:39:35.892Z,24.00
2022-07-29T23:42:02.423Z,24.00
2022-07-29T23:44:33.047Z,24.00
2022-07-29T23:46:59.906Z,24.00
2022-07-29T23:49:26.591Z,24.00
2022-07-29T23:51:53.123Z,24.00
2022-07-29T23:54:19.626Z,24.10
2022-07-29T23:56:46.488Z,24.00
2022-07-29T23:59:13.119Z,24.10
